createdAt,value
2019-02-05T00:02:11.493Z,14.87
2019-02-05T00:04:43.227Z,11.20
2019-02-05T00:07:14.988Z,9.37
2019-02-05T00:09:45.483Z,15.90
2019-02-05T00:12:15.970Z,15.30
2019-02-05T00:14:46.346Z,11.17
2019-02-05T00:17:16.812Z,13.90
2019-02-05T00:19:47.207Z,11.90
2019-02-05T00:22:17.688Z,12.10
2019-02-05T00:24:48.112Z,11.10
2019-02-05T00:27:18.531Z,11.73
2019-02-05T00:29:48.887Z,12.93
2019-02-05T00:32:19.330Z,21.50
2019-02-05T00:34:49.698Z,12.97
2019-02-05T00:37:20.328Z,12.37
2019-02-05T00:39:51.789Z,11.50
2019-02-05T00:42:22.251Z,15.13
2019-02-05T00:44:52.756Z,14.07
2019-02-05T00:47:23.216Z,12.80
2019-02-05T00:49:53.651Z,14.50
2019-02-05T00:52:24.090Z,25.80
2019-02-05T00:54:54.507Z,19.27
2019-02-05T00:57:24.991Z,23.77
2019-02-05T00:59:55.445Z,14.87
2019-02-05T01:02:25.862Z,15.40
2019-02-05T01:04:56.679Z,17.83
2019-02-05T01:07:27.158Z,19.83
2019-02-05T01:09:57.589Z,13.30
2019-02-05T01:12:28.806Z,16.80
2019-02-05T01:14:59.258Z,14.40
2019-02-05T01:17:31.200Z,18.90
2019-02-05T01:20:01.641Z,21.97
2019-02-05T01:22:32.301Z,21.43
2019-02-05T01:25:02.736Z,19.57
2019-02-05T01:27:33.248Z,18.60
2019-02-05T01:30:04.620Z,17.47
2019-02-05T01:32:35.019Z,18.97
2019-02-05T01:35:06.483Z,31.57
2019-02-05T01:37:38.520Z,19.23
2019-02-05T01:40:11.016Z,20.47
2019-02-05T01:42:41.642Z,24.90
2019-02-05T01:45:14.874Z,24.93
2019-02-05T01:47:45.432Z,26.77
2019-02-05T01:50:19.043Z,19.60
2019-02-05T01:52:49.458Z,26.23
2019-02-05T01:55:20.381Z,20.73
2019-02-05T01:57:50.912Z,17.30
2019-02-05T02:00:26.581Z,20.50
2019-02-05T02:02:56.962Z,25.70
2019-02-05T02:05:27.682Z,22.70
2019-02-05T02:07:58.543Z,25.67
2019-02-05T02:10:30.119Z,20.07
2019-02-05T02:13:00.660Z,19.80
2019-02-05T02:15:31.035Z,19.83
2019-02-05T02:18:01.402Z,23.03
2019-02-05T02:20:31.765Z,17.93
2019-02-05T02:23:02.222Z,19.80
2019-02-05T02:25:32.649Z,22.47
2019-02-05T02:28:02.947Z,23.00
2019-02-05T02:30:36.046Z,25.10
2019-02-05T02:33:06.987Z,27.80
2019-02-05T02:35:37.844Z,25.97
2019-02-05T02:38:08.422Z,28.87
2019-02-05T02:40:38.971Z,28.37
2019-02-05T02:43:09.637Z,27.33
2019-02-05T02:45:40.116Z,22.23
2019-02-05T02:48:10.737Z,28.27
2019-02-05T02:50:41.239Z,25.20
2019-02-05T02:53:11.662Z,23.70
2019-02-05T02:55:42.127Z,24.17
2019-02-05T02:58:13.648Z,24.87
2019-02-05T03:00:45.321Z,32.00
2019-02-05T03:03:15.844Z,25.10
2019-02-05T03:05:46.277Z,31.80
2019-02-05T03:10:25.494Z,24.37
2019-02-05T03:12:56.793Z,24.67
2019-02-05T03:15:27.354Z,30.63
2019-02-05T03:17:57.984Z,28.80
2019-02-05T03:20:28.562Z,27.53
2019-02-05T03:22:59.247Z,23.83
2019-02-05T03:25:29.809Z,24.47
2019-02-05T03:28:00.362Z,27.47
2019-02-05T03:30:30.901Z,30.40
2019-02-05T03:33:01.924Z,29.13
2019-02-05T03:35:32.553Z,28.03
2019-02-05T03:38:03.461Z,30.43
2019-02-05T03:40:55.844Z,28.30
2019-02-05T03:43:26.463Z,27.87
2019-02-05T03:45:58.544Z,23.90
2019-02-05T03:48:30.448Z,29.73
2019-02-05T03:51:11.813Z,25.43
2019-02-05T03:53:47.155Z,30.73
2019-02-05T03:56:35.079Z,29.43
2019-02-05T03:59:52.707Z,31.10
2019-02-05T04:02:56.621Z,27.50
2019-02-05T04:05:43.490Z,28.70
2019-02-05T04:08:55.037Z,29.03
2019-02-05T04:12:06.807Z,31.03
2019-02-05T04:15:18.266Z,26.77
2019-02-05T04:18:20.614Z,39.27
2019-02-05T04:21:33.942Z,33.57
2019-02-05T04:24:34.641Z,36.13
2019-02-05T04:27:45.163Z,31.40
2019-02-05T04:30:35.763Z,36.13
2019-02-05T04:33:52.660Z,37.07
2019-02-05T04:36:57.726Z,32.90
2019-02-05T04:40:01.355Z,31.17
2019-02-05T04:43:26.274Z,35.87
2019-02-05T04:46:40.647Z,38.97
2019-02-05T04:49:54.150Z,44.30
2019-02-05T04:52:51.233Z,35.50
2019-02-05T04:56:05.015Z,34.37
2019-02-05T04:59:19.773Z,42.93
2019-02-05T05:02:08.150Z,38.40
2019-02-05T05:05:08.053Z,39.83
2019-02-05T05:08:31.980Z,40.90
2019-02-05T05:11:02.638Z,40.23
2019-02-05T05:13:33.695Z,36.90
2019-02-05T05:16:04.418Z,48.97
2019-02-05T05:18:35.332Z,49.37
2019-02-05T05:21:06.464Z,46.27
2019-02-05T05:23:37.228Z,48.87
2019-02-05T05:26:07.766Z,48.37
2019-02-05T05:28:42.025Z,57.60
2019-02-05T05:31:13.085Z,49.20
2019-02-05T05:33:43.864Z,55.63
2019-02-05T05:36:14.425Z,52.80
2019-02-05T05:38:45.237Z,61.90
2019-02-05T05:41:16.007Z,51.83
2019-02-05T05:43:47.003Z,52.90
2019-02-05T05:46:17.790Z,58.17
2019-02-05T05:48:49.148Z,57.40
2019-02-05T05:51:19.775Z,53.70
2019-02-05T05:53:50.720Z,59.03
2019-02-05T05:56:25.654Z,57.87
2019-02-05T05:58:56.354Z,53.23
2019-02-05T06:01:27.069Z,59.83
2019-02-05T06:03:57.524Z,69.03
2019-02-05T06:06:28.241Z,66.00
2019-02-05T06:08:58.801Z,61.93
2019-02-05T06:11:29.472Z,59.90
2019-02-05T06:14:00.039Z,69.53
2019-02-05T06:16:30.435Z,69.83
2019-02-05T06:19:07.254Z,64.30
2019-02-05T06:21:38.166Z,63.77
2019-02-05T06:24:08.878Z,68.37
2019-02-05T06:26:41.546Z,71.13
2019-02-05T06:29:12.428Z,74.17
2019-02-05T06:31:43.044Z,67.33
2019-02-05T06:34:13.766Z,68.97
2019-02-05T06:36:44.585Z,67.20
2019-02-05T06:39:15.487Z,73.50
2019-02-05T06:41:46.585Z,75.63
2019-02-05T06:44:20.616Z,66.93
2019-02-05T06:46:51.229Z,66.63
2019-02-05T06:49:22.940Z,72.60
2019-02-05T06:51:53.557Z,79.53
2019-02-05T06:54:24.265Z,72.13
2019-02-05T06:56:54.938Z,81.43
2019-02-05T06:59:25.389Z,81.77
2019-02-05T07:01:55.895Z,75.97
2019-02-05T07:04:27.723Z,75.33
2019-02-05T07:06:58.263Z,74.03
2019-02-05T07:09:28.821Z,69.37
2019-02-05T07:11:59.340Z,68.87
2019-02-05T07:14:29.977Z,73.90
2019-02-05T07:17:00.527Z,87.03
2019-02-05T07:19:32.456Z,75.33
2019-02-05T07:22:03.753Z,76.43
2019-02-05T07:24:34.297Z,85.23
2019-02-05T07:27:05.048Z,76.27
2019-02-05T07:29:36.204Z,77.93
2019-02-05T07:32:06.836Z,72.67
2019-02-05T07:34:37.530Z,74.30
2019-02-05T07:37:08.143Z,74.30
2019-02-05T07:39:39.375Z,77.20
2019-02-05T07:42:10.151Z,66.50
2019-02-05T07:44:40.826Z,74.07
2019-02-05T07:47:11.575Z,67.90
2019-02-05T07:49:42.160Z,69.07
2019-02-05T07:52:13.082Z,65.37
2019-02-05T07:54:43.739Z,69.90
2019-02-05T07:57:25.776Z,62.57
2019-02-05T07:59:56.484Z,69.33
2019-02-05T08:02:27.567Z,62.60
2019-02-05T08:05:00.726Z,66.40
2019-02-05T08:07:30.350Z,67.63
2019-02-05T08:10:00.776Z,67.30
2019-02-05T08:12:31.309Z,70.63
2019-02-05T08:15:01.971Z,58.53
2019-02-05T08:17:32.890Z,62.80
2019-02-05T08:20:03.819Z,57.57
2019-02-05T08:22:34.366Z,59.63
2019-02-05T08:25:05.719Z,61.23
2019-02-05T08:27:37.247Z,58.73
2019-02-05T08:30:18.334Z,64.73
2019-02-05T08:32:49.239Z,62.67
2019-02-05T08:35:20.246Z,58.73
2019-02-05T08:37:51.587Z,62.17
2019-02-05T08:40:22.469Z,63.90
2019-02-05T08:42:53.295Z,67.53
2019-02-05T08:45:26.947Z,66.10
2019-02-05T08:47:57.552Z,66.60
2019-02-05T08:50:29.113Z,57.23
2019-02-05T08:53:00.520Z,76.33
2019-02-05T08:55:31.387Z,66.63
2019-02-05T08:58:05.007Z,69.80
2019-02-05T09:00:37.600Z,73.27
2019-02-05T09:03:11.028Z,59.97
2019-02-05T09:05:42.365Z,74.00
2019-02-05T09:08:13.462Z,72.50
2019-02-05T09:10:44.406Z,66.13
2019-02-05T09:13:15.900Z,66.43
2019-02-05T09:16:05.452Z,67.80
2019-02-05T09:18:37.114Z,72.00
2019-02-05T09:21:10.426Z,76.23
2019-02-05T09:23:42.020Z,66.73
2019-02-05T09:26:12.810Z,71.60
2019-02-05T09:28:43.554Z,72.90
2019-02-05T09:31:14.697Z,71.83
2019-02-05T09:33:46.073Z,73.57
2019-02-05T09:36:18.859Z,74.93
2019-02-05T09:38:49.344Z,69.03
2019-02-05T09:41:20.388Z,66.20
2019-02-05T09:43:51.169Z,66.83
2019-02-05T09:46:22.160Z,55.97
2019-02-05T09:48:53.725Z,60.30
2019-02-05T09:51:28.083Z,63.97
2019-02-05T09:53:59.045Z,70.47
2019-02-05T09:56:29.490Z,73.23
2019-02-05T09:59:00.401Z,69.87
2019-02-05T10:01:31.162Z,73.57
2019-02-05T10:04:01.782Z,61.67
2019-02-05T10:06:32.512Z,65.20
2019-02-05T10:09:04.092Z,63.93
2019-02-05T10:11:34.655Z,64.97
2019-02-05T10:14:06.427Z,58.73
2019-02-05T10:16:37.809Z,64.83
2019-02-05T10:19:10.263Z,65.80
2019-02-05T10:21:42.056Z,60.30
2019-02-05T10:24:13.714Z,57.73
2019-02-05T10:26:47.825Z,63.23
2019-02-05T10:29:37.670Z,59.27
2019-02-05T10:32:10.131Z,55.10
2019-02-05T10:34:43.227Z,58.50
2019-02-05T10:37:16.891Z,54.10
2019-02-05T10:39:47.586Z,61.73
2019-02-05T10:42:20.625Z,53.23
2019-02-05T10:44:51.323Z,66.07
2019-02-05T10:47:22.080Z,60.67
2019-02-05T10:49:53.348Z,60.93
2019-02-05T10:52:28.225Z,58.50
2019-02-05T10:54:59.760Z,60.30
2019-02-05T10:57:30.757Z,66.93
2019-02-05T11:00:09.162Z,60.87
2019-02-05T11:02:40.218Z,54.87
2019-02-05T11:05:14.695Z,62.10
2019-02-05T11:07:45.866Z,64.30
2019-02-05T11:10:24.013Z,68.37
2019-02-05T11:12:55.161Z,53.37
2019-02-05T11:15:28.802Z,61.07
2019-02-05T11:18:02.787Z,54.20
2019-02-05T11:20:34.276Z,61.73
2019-02-05T11:23:08.147Z,60.10
2019-02-05T11:25:39.571Z,55.17
2019-02-05T11:28:11.795Z,60.30
2019-02-05T11:30:48.544Z,69.83
2019-02-05T11:33:20.957Z,68.13
2019-02-05T11:35:51.713Z,59.57
2019-02-05T11:38:22.511Z,70.00
2019-02-05T11:40:53.333Z,60.77
2019-02-05T11:43:29.928Z,68.53
2019-02-05T11:46:01.623Z,60.70
2019-02-05T11:48:32.639Z,60.30
2019-02-05T11:51:03.727Z,69.10
2019-02-05T11:53:34.633Z,68.10
2019-02-05T11:56:05.782Z,62.10
2019-02-05T11:58:36.954Z,66.83
2019-02-05T12:01:12.811Z,69.13
2019-02-05T12:03:43.700Z,64.10
2019-02-05T12:06:20.909Z,59.90
2019-02-05T12:08:56.598Z,68.27
2019-02-05T12:11:28.062Z,67.30
2019-02-05T12:13:58.751Z,73.87
2019-02-05T12:16:31.352Z,64.13
2019-02-05T12:19:02.661Z,66.60
2019-02-05T12:21:33.365Z,68.13
2019-02-05T12:24:04.884Z,67.20
2019-02-05T12:26:36.274Z,58.47
2019-02-05T12:29:19.457Z,62.20
2019-02-05T12:31:50.412Z,66.77
2019-02-05T12:34:21.294Z,63.90
2019-02-05T12:36:54.542Z,62.73
2019-02-05T12:39:25.168Z,66.40
2019-02-05T12:41:56.359Z,51.70
2019-02-05T12:44:29.799Z,54.20
2019-02-05T12:47:03.918Z,52.37
2019-02-05T12:49:34.792Z,50.43
2019-02-05T12:52:05.704Z,45.63
2019-02-05T12:54:36.499Z,45.13
2019-02-05T12:57:07.772Z,44.90
2019-02-05T12:59:39.881Z,40.67
2019-02-05T13:02:10.797Z,39.00
2019-02-05T13:04:45.032Z,33.80
2019-02-05T13:07:18.607Z,39.53
2019-02-05T13:09:57.239Z,47.37
2019-02-05T13:12:28.088Z,40.23
2019-02-05T13:14:59.082Z,46.17
2019-02-05T13:17:35.393Z,41.83
2019-02-05T13:20:09.803Z,35.80
2019-02-05T13:22:40.350Z,33.87
2019-02-05T13:25:18.240Z,40.67
2019-02-05T13:27:48.921Z,41.47
2019-02-05T13:30:22.737Z,36.30
2019-02-05T13:32:53.789Z,40.00
2019-02-05T13:35:25.460Z,40.30
2019-02-05T13:37:56.458Z,38.53
2019-02-05T13:40:28.794Z,41.10
2019-02-05T13:43:01.347Z,41.93
2019-02-05T13:45:34.361Z,37.17
2019-02-05T13:48:06.299Z,40.43
2019-02-05T13:50:37.612Z,42.63
2019-02-05T13:53:11.697Z,45.73
2019-02-05T13:55:46.865Z,41.27
2019-02-05T13:58:17.668Z,36.27
2019-02-05T14:00:57.522Z,39.70
2019-02-05T14:03:32.464Z,37.07
2019-02-05T14:06:06.824Z,39.03
2019-02-05T14:08:37.629Z,39.60
2019-02-05T14:11:13.623Z,38.13
2019-02-05T14:13:46.796Z,33.07
2019-02-05T14:16:18.030Z,36.40
2019-02-05T14:18:55.448Z,36.07
2019-02-05T14:21:24.142Z,36.50
2019-02-05T14:23:55.333Z,37.43
2019-02-05T14:26:26.691Z,32.63
2019-02-05T14:28:58.229Z,34.63
2019-02-05T14:31:31.709Z,36.87
2019-02-05T14:34:07.394Z,35.47
2019-02-05T14:37:06.286Z,33.73
2019-02-05T14:39:41.325Z,38.00
2019-02-05T14:42:13.685Z,41.97
2019-02-05T14:44:45.495Z,32.90
2019-02-05T14:47:16.024Z,43.30
2019-02-05T14:49:48.244Z,39.83
2019-02-05T14:52:20.987Z,44.13
2019-02-05T14:54:56.279Z,36.20
2019-02-05T14:57:29.648Z,38.43
2019-02-05T15:00:00.826Z,42.40
2019-02-05T15:02:31.792Z,35.93
2019-02-05T15:05:02.639Z,40.70
2019-02-05T15:07:33.847Z,37.90
2019-02-05T15:10:06.205Z,45.50
2019-02-05T15:12:39.115Z,41.20
2019-02-05T15:15:13.433Z,41.10
2019-02-05T15:17:45.100Z,44.57
2019-02-05T15:20:20.548Z,40.67
2019-02-05T15:22:51.580Z,39.70
2019-02-05T15:25:25.505Z,42.57
2019-02-05T15:27:56.099Z,40.80
2019-02-05T15:30:35.189Z,39.10
2019-02-05T15:33:38.649Z,42.70
2019-02-05T15:36:18.068Z,44.03
2019-02-05T15:38:48.842Z,40.33
2019-02-05T15:41:19.752Z,40.37
2019-02-05T15:43:50.417Z,41.60
2019-02-05T15:46:21.098Z,38.07
2019-02-05T15:48:52.395Z,43.97
2019-02-05T15:51:22.966Z,40.43
2019-02-05T15:53:53.703Z,38.70
2019-02-05T15:56:24.785Z,38.73
2019-02-05T15:58:55.983Z,38.90
2019-02-05T16:01:27.215Z,38.73
2019-02-05T16:03:58.944Z,37.10
2019-02-05T16:06:34.929Z,39.83
2019-02-05T16:09:09.136Z,36.97
2019-02-05T16:11:43.099Z,34.10
2019-02-05T16:14:14.298Z,42.03
2019-02-05T16:16:46.363Z,36.50
2019-02-05T16:19:17.382Z,39.27
2019-02-05T16:21:48.480Z,42.07
2019-02-05T16:24:22.268Z,38.53
2019-02-05T16:26:53.598Z,41.23
2019-02-05T16:29:24.947Z,39.53
2019-02-05T16:31:55.792Z,39.87
2019-02-05T16:34:26.424Z,41.90
2019-02-05T16:37:00.260Z,37.10
2019-02-05T16:39:40.082Z,39.13
2019-02-05T16:42:11.143Z,41.27
2019-02-05T16:44:41.868Z,41.67
2019-02-05T16:47:12.990Z,44.27
2019-02-05T16:49:44.178Z,42.40
2019-02-05T16:52:15.188Z,48.30
2019-02-05T16:54:49.115Z,40.63
2019-02-05T16:57:20.175Z,41.73
2019-02-05T16:59:50.844Z,37.73
2019-02-05T17:02:28.930Z,41.40
2019-02-05T17:04:56.494Z,37.03
2019-02-05T17:07:27.101Z,39.47
2019-02-05T17:10:00.539Z,40.63
2019-02-05T17:12:31.607Z,41.43
2019-02-05T17:15:02.933Z,37.53
2019-02-05T17:17:33.597Z,38.20
2019-02-05T17:20:06.169Z,39.97
2019-02-05T17:22:36.875Z,40.37
2019-02-05T17:25:08.301Z,40.73
2019-02-05T17:27:39.011Z,38.03
2019-02-05T17:30:12.685Z,36.77
2019-02-05T17:32:43.355Z,42.20
2019-02-05T17:35:20.935Z,37.83
2019-02-05T17:37:58.077Z,41.50
2019-02-05T17:40:34.505Z,46.10
2019-02-05T17:43:15.209Z,49.27
2019-02-05T17:45:52.839Z,46.10
2019-02-05T17:48:31.380Z,45.87
2019-02-05T17:51:09.161Z,46.23
2019-02-05T17:53:46.230Z,46.90
2019-02-05T17:56:23.266Z,51.83
2019-02-05T17:59:00.522Z,45.63
2019-02-05T18:01:38.259Z,42.43
2019-02-05T18:04:18.232Z,48.60
2019-02-05T18:06:55.066Z,42.07
2019-02-05T18:09:33.229Z,53.30
2019-02-05T18:12:11.107Z,46.67
2019-02-05T18:14:48.666Z,49.33
2019-02-05T18:17:24.665Z,49.83
2019-02-05T18:20:01.807Z,42.50
2019-02-05T18:22:40.314Z,55.47
2019-02-05T18:25:19.676Z,44.90
2019-02-05T18:27:55.671Z,47.30
2019-02-05T18:30:33.777Z,52.13
2019-02-05T18:33:11.270Z,48.80
2019-02-05T18:35:48.465Z,46.00
2019-02-05T18:38:26.147Z,45.37
2019-02-05T18:41:03.514Z,47.57
2019-02-05T18:43:42.355Z,50.87
2019-02-05T18:46:19.801Z,48.50
2019-02-05T18:49:04.698Z,56.83
2019-02-05T18:51:35.778Z,50.00
2019-02-05T18:54:14.356Z,53.43
2019-02-05T18:56:52.274Z,54.27
2019-02-05T18:59:30.355Z,58.50
2019-02-05T19:02:08.330Z,56.37
2019-02-05T19:04:51.370Z,46.97
2019-02-05T19:07:26.909Z,49.37
2019-02-05T19:10:03.716Z,54.40
2019-02-05T19:12:40.616Z,62.27
2019-02-05T19:15:25.382Z,63.40
2019-02-05T19:18:04.826Z,63.00
2019-02-05T19:20:43.056Z,55.57
2019-02-05T19:23:20.925Z,68.37
2019-02-05T19:26:05.025Z,58.40
2019-02-05T19:28:46.087Z,68.77
2019-02-05T19:32:27.996Z,67.60
2019-02-05T19:35:04.943Z,68.30
2019-02-05T19:37:41.717Z,71.87
2019-02-05T19:40:17.581Z,67.73
2019-02-05T19:42:54.370Z,81.27
2019-02-05T19:45:49.388Z,75.70
2019-02-05T19:48:33.074Z,74.47
2019-02-05T19:51:10.666Z,83.40
2019-02-05T19:53:45.914Z,80.40
2019-02-05T19:56:24.063Z,81.97
2019-02-05T19:59:00.686Z,81.33
2019-02-05T20:01:37.715Z,82.63
2019-02-05T20:04:11.616Z,80.23
2019-02-05T20:06:48.349Z,77.93
2019-02-05T20:09:23.092Z,83.00
2019-02-05T20:12:04.070Z,87.70
2019-02-05T20:14:44.607Z,88.83
2019-02-05T20:17:17.922Z,84.47
2019-02-05T20:19:54.829Z,82.13
2019-02-05T20:22:32.460Z,88.77
2019-02-05T20:25:08.968Z,86.37
2019-02-05T20:27:44.934Z,91.97
2019-02-05T20:30:21.888Z,87.87
2019-02-05T20:32:56.351Z,95.67
2019-02-05T20:35:30.440Z,86.33
2019-02-05T20:38:08.597Z,93.93
2019-02-05T20:40:47.206Z,86.07
2019-02-05T20:43:22.781Z,90.97
2019-02-05T20:45:56.644Z,85.00
2019-02-05T20:48:30.732Z,82.40
2019-02-05T20:51:08.259Z,79.07
2019-02-05T20:53:45.217Z,82.43
2019-02-05T20:56:22.355Z,86.57
2019-02-05T20:59:00.393Z,85.10
2019-02-05T21:01:36.698Z,90.40
2019-02-05T21:04:13.663Z,88.00
2019-02-05T21:06:49.951Z,83.57
2019-02-05T21:09:28.103Z,86.57
2019-02-05T21:12:04.268Z,76.07
2019-02-05T21:14:40.498Z,86.23
2019-02-05T21:17:14.783Z,81.60
2019-02-05T21:19:51.645Z,75.23
2019-02-05T21:22:27.413Z,80.30
2019-02-05T21:25:04.933Z,80.03
2019-02-05T21:27:43.118Z,77.90
2019-02-05T21:30:28.598Z,78.17
2019-02-05T21:33:06.920Z,72.87
2019-02-05T21:35:43.322Z,74.40
2019-02-05T21:38:21.901Z,79.00
2019-02-05T21:40:58.780Z,90.07
2019-02-05T21:43:36.581Z,75.47
2019-02-05T21:46:14.834Z,75.20
2019-02-05T21:48:51.992Z,79.70
2019-02-05T21:51:40.183Z,82.03
2019-02-05T21:54:08.450Z,74.43
2019-02-05T21:56:44.218Z,83.20
2019-02-05T21:59:21.140Z,79.97
2019-02-05T22:01:58.679Z,76.83
2019-02-05T22:04:36.038Z,74.60
2019-02-05T22:07:10.953Z,78.10
2019-02-05T22:09:48.375Z,74.87
2019-02-05T22:12:24.303Z,64.57
2019-02-05T22:15:01.144Z,66.67
2019-02-05T22:17:39.792Z,70.40
2019-02-05T22:20:20.695Z,69.47
2019-02-05T22:22:58.082Z,66.77
2019-02-05T22:25:33.993Z,71.90
2019-02-05T22:28:10.823Z,70.20
2019-02-05T22:30:47.011Z,70.33
2019-02-05T22:33:23.367Z,75.63
2019-02-05T22:36:00.603Z,78.07
2019-02-05T22:38:37.442Z,73.43
2019-02-05T22:41:13.934Z,68.83
2019-02-05T22:43:50.938Z,70.50
2019-02-05T22:46:28.161Z,70.93
2019-02-05T22:49:07.749Z,73.40
2019-02-05T22:51:44.232Z,76.97
2019-02-05T22:54:19.656Z,72.50
2019-02-05T22:56:55.344Z,71.20
2019-02-05T22:59:32.292Z,75.37
2019-02-05T23:02:11.313Z,78.17
2019-02-05T23:05:23.874Z,67.30
2019-02-05T23:08:00.568Z,69.83
2019-02-05T23:11:03.041Z,69.40
2019-02-05T23:13:34.711Z,78.03
2019-02-05T23:16:09.765Z,78.03
2019-02-05T23:18:46.347Z,69.63
2019-02-05T23:21:23.417Z,78.00
2019-02-05T23:24:00.328Z,76.13
2019-02-05T23:26:36.700Z,75.67
2019-02-05T23:29:13.507Z,73.13
2019-02-05T23:31:50.557Z,72.83
2019-02-05T23:34:27.385Z,74.27
2019-02-05T23:37:03.910Z,71.47
2019-02-05T23:39:41.282Z,74.40
2019-02-05T23:42:16.418Z,81.33
2019-02-05T23:44:51.578Z,76.63
2019-02-05T23:47:28.908Z,71.07
2019-02-05T23:50:07.714Z,75.77
2019-02-05T23:52:44.347Z,75.77
2019-02-05T23:55:23.105Z,78.10
2019-02-05T23:58:00.024Z,84.17
